createdAt,value
2019-02-11T00:02:04.636Z,99315.09
2019-02-11T00:04:32.900Z,99330.55
2019-02-11T00:07:01.137Z,99342.50
2019-02-11T00:09:29.418Z,99340.00
2019-02-11T00:11:57.665Z,99340.16
2019-02-11T00:14:25.901Z,99361.86
2019-02-11T00:16:54.163Z,99360.20
2019-02-11T00:19:22.625Z,99364.44
2019-02-11T00:21:50.874Z,99376.14
2019-02-11T00:24:19.100Z,99375.58
2019-02-11T00:26:47.378Z,99385.95
2019-02-11T00:29:15.652Z,99390.66
2019-02-11T00:31:43.937Z,99391.00
2019-02-11T00:34:12.213Z,99398.39
2019-02-11T00:36:40.863Z,99414.89
2019-02-11T00:39:09.139Z,99422.15
2019-02-11T00:41:37.375Z,99427.36
2019-02-11T00:44:05.642Z,99428.94
2019-02-11T00:46:33.938Z,99435.44
2019-02-11T00:49:02.170Z,99452.92
2019-02-11T00:51:30.410Z,99447.53
2019-02-11T00:53:58.697Z,99454.88
2019-02-11T00:56:26.991Z,99456.09
2019-02-11T00:58:55.768Z,99472.74
2019-02-11T01:01:24.201Z,99476.00
2019-02-11T01:03:52.519Z,99479.88
2019-02-11T01:06:20.763Z,99494.34
2019-02-11T01:08:49.010Z,99492.33
2019-02-11T01:11:17.248Z,99501.27
2019-02-11T01:13:45.523Z,99510.80
2019-02-11T01:16:13.795Z,99518.55
2019-02-11T01:18:42.247Z,99527.13
2019-02-11T01:21:10.555Z,99527.02
2019-02-11T01:23:38.784Z,99528.13
2019-02-11T01:26:07.062Z,99534.19
2019-02-11T01:28:35.303Z,99541.55
2019-02-11T01:31:03.574Z,99540.48
2019-02-11T01:33:31.832Z,99555.32
2019-02-11T01:36:00.104Z,99557.38
2019-02-11T01:38:28.351Z,99558.49
2019-02-11T01:40:56.611Z,99563.58
2019-02-11T01:43:24.866Z,99571.92
2019-02-11T01:45:53.142Z,99573.13
2019-02-11T01:48:21.386Z,99573.03
2019-02-11T01:50:50.127Z,99583.42
2019-02-11T01:53:18.366Z,99590.41
2019-02-11T01:55:46.651Z,99589.81
2019-02-11T01:58:14.899Z,99591.30
2019-02-11T02:00:43.146Z,99591.18
2019-02-11T02:03:11.419Z,99603.41
2019-02-11T02:05:39.650Z,99612.09
2019-02-11T02:08:07.930Z,99608.84
2019-02-11T02:10:36.182Z,99618.86
2019-02-11T02:13:04.593Z,99620.45
2019-02-11T02:15:33.005Z,99625.54
2019-02-11T02:18:01.254Z,99632.81
2019-02-11T02:20:29.608Z,99632.22
2019-02-11T02:22:57.958Z,99635.63
2019-02-11T02:25:26.267Z,99641.67
2019-02-11T02:27:54.516Z,99653.61
2019-02-11T02:30:22.784Z,99650.95
2019-02-11T02:32:51.123Z,99659.00
2019-02-11T02:35:19.376Z,99671.06
2019-02-11T02:37:47.926Z,99670.33
2019-02-11T02:40:16.203Z,99672.22
2019-02-11T02:42:44.436Z,99674.61
2019-02-11T02:45:12.713Z,99677.27
2019-02-11T02:47:41.028Z,99683.63
2019-02-11T02:50:10.098Z,99690.48
2019-02-11T02:52:40.893Z,99695.31
2019-02-11T02:55:09.199Z,99702.06
2019-02-11T02:57:40.699Z,99698.64
2019-02-11T03:00:11.051Z,99708.05
2019-02-11T03:02:39.320Z,99699.36
2019-02-11T03:05:09.096Z,99714.80
2019-02-11T03:07:37.372Z,99712.34
2019-02-11T03:10:10.514Z,99720.30
2019-02-11T03:12:38.916Z,99733.56
2019-02-11T03:15:09.727Z,99741.99
2019-02-11T03:17:37.982Z,99739.34
2019-02-11T03:20:10.620Z,99740.55
2019-02-11T03:22:38.871Z,99749.95
2019-02-11T03:25:08.373Z,99758.38
2019-02-11T03:27:36.723Z,99763.67
2019-02-11T03:30:07.757Z,99756.66
2019-02-11T03:32:35.993Z,99762.83
2019-02-11T03:35:05.180Z,99766.59
2019-02-11T03:37:33.414Z,99772.17
2019-02-11T03:40:01.673Z,99773.50
2019-02-11T03:42:30.014Z,99769.52
2019-02-11T03:44:58.312Z,99776.88
2019-02-11T03:47:26.563Z,99790.91
2019-02-11T03:49:54.804Z,99793.06
2019-02-11T03:52:23.086Z,99806.23
2019-02-11T03:54:51.332Z,99807.83
2019-02-11T03:57:19.616Z,99804.23
2019-02-11T03:59:47.867Z,99808.10
2019-02-11T04:02:16.176Z,99816.06
2019-02-11T04:04:44.452Z,99823.93
2019-02-11T04:07:12.698Z,99831.39
2019-02-11T04:09:40.944Z,99838.52
2019-02-11T04:12:09.289Z,99834.63
2019-02-11T04:14:37.623Z,99846.09
2019-02-11T04:17:05.863Z,99853.20
2019-02-11T04:19:34.237Z,99856.44
2019-02-11T04:22:06.760Z,99854.72
2019-02-11T04:24:35.002Z,99871.97
2019-02-11T04:27:03.337Z,99885.23
2019-02-11T04:29:31.615Z,99888.35
2019-02-11T04:31:59.870Z,99892.83
2019-02-11T04:34:28.155Z,99886.67
2019-02-11T04:36:56.406Z,99890.73
2019-02-11T04:39:24.661Z,99910.63
2019-02-11T04:41:52.932Z,99907.23
2019-02-11T04:44:21.195Z,99915.78
2019-02-11T04:46:49.440Z,99933.41
2019-02-11T04:49:17.785Z,99933.41
2019-02-11T04:51:46.119Z,99930.41
2019-02-11T04:54:14.343Z,99930.80
2019-02-11T04:56:42.581Z,99935.00
2019-02-11T04:59:10.874Z,99942.12
2019-02-11T05:01:39.109Z,99953.77
2019-02-11T05:04:07.379Z,99953.97
2019-02-11T05:06:35.623Z,99960.69
2019-02-11T05:09:05.330Z,99961.72
2019-02-11T05:11:33.706Z,99976.30
2019-02-11T05:14:02.088Z,99976.27
2019-02-11T05:16:30.406Z,99970.05
2019-02-11T05:18:58.701Z,99982.16
2019-02-11T05:21:26.928Z,99979.69
2019-02-11T05:23:55.407Z,99978.36
2019-02-11T05:26:23.658Z,99982.41
2019-02-11T05:28:51.923Z,99990.06
2019-02-11T05:31:20.202Z,99988.92
2019-02-11T05:33:48.459Z,99989.67
2019-02-11T05:36:16.705Z,99996.97
2019-02-11T05:38:45.318Z,100005.63
2019-02-11T05:41:13.595Z,100007.52
2019-02-11T05:43:41.883Z,100005.73
2019-02-11T05:46:10.193Z,100011.61
2019-02-11T05:48:38.439Z,100018.26
2019-02-11T05:51:06.716Z,100015.40
2019-02-11T05:53:34.959Z,100015.61
2019-02-11T05:56:03.407Z,100020.73
2019-02-11T05:58:31.670Z,100017.51
2019-02-11T06:00:59.957Z,100030.00
2019-02-11T06:03:28.313Z,100036.83
2019-02-11T06:05:56.550Z,100040.98
2019-02-11T06:08:24.915Z,100042.52
2019-02-11T06:10:53.392Z,100051.61
2019-02-11T06:13:21.639Z,100054.08
2019-02-11T06:15:49.911Z,100057.48
2019-02-11T06:18:18.186Z,100074.52
2019-02-11T06:20:46.807Z,100085.40
2019-02-11T06:23:15.076Z,100104.23
2019-02-11T06:25:43.430Z,100107.56
2019-02-11T06:28:11.676Z,100108.78
2019-02-11T06:30:40.082Z,100109.06
2019-02-11T06:33:08.335Z,100130.55
2019-02-11T06:35:36.707Z,100130.84
2019-02-11T06:38:04.951Z,100129.80
2019-02-11T06:40:33.187Z,100135.31
2019-02-11T06:43:01.538Z,100138.71
2019-02-11T06:45:29.776Z,100143.83
2019-02-11T06:47:58.121Z,100145.09
2019-02-11T06:50:26.485Z,100143.08
2019-02-11T06:52:54.671Z,100157.59
2019-02-11T06:55:22.971Z,100161.66
2019-02-11T06:57:51.225Z,100169.80
2019-02-11T07:00:19.467Z,100183.27
2019-02-11T07:02:47.978Z,100195.02
2019-02-11T07:05:16.258Z,100199.75
2019-02-11T07:07:44.503Z,100209.78
2019-02-11T07:10:12.807Z,100212.83
2019-02-11T07:12:41.244Z,100222.86
2019-02-11T07:15:21.205Z,100215.01
2019-02-11T07:17:43.011Z,100223.72
2019-02-11T07:20:11.310Z,100239.81
2019-02-11T07:22:42.248Z,100246.37
2019-02-11T07:25:10.550Z,100253.36
2019-02-11T07:27:38.799Z,100248.80
2019-02-11T07:30:11.992Z,100260.56
2019-02-11T07:32:40.232Z,100269.30
2019-02-11T07:35:08.475Z,100276.77
2019-02-11T07:37:36.770Z,100272.72
2019-02-11T07:40:08.323Z,100282.28
2019-02-11T07:42:41.018Z,100285.80
2019-02-11T07:45:12.246Z,100290.63
2019-02-11T07:47:40.527Z,100291.86
2019-02-11T07:50:08.820Z,100295.84
2019-02-11T07:52:38.615Z,100303.33
2019-02-11T07:55:06.863Z,100307.20
2019-02-11T07:57:35.239Z,100320.00
2019-02-11T08:00:03.648Z,100316.48
2019-02-11T08:02:31.907Z,100328.42
2019-02-11T08:05:00.281Z,100336.02
2019-02-11T08:07:28.508Z,100338.10
2019-02-11T08:09:56.820Z,100327.48
2019-02-11T08:12:25.115Z,100343.02
2019-02-11T08:14:53.411Z,100362.16
2019-02-11T08:17:21.684Z,100361.58
2019-02-11T08:19:49.960Z,100354.95
2019-02-11T08:22:18.242Z,100355.73
2019-02-11T08:24:46.578Z,100358.50
2019-02-11T08:27:14.852Z,100353.84
2019-02-11T08:29:43.159Z,100375.30
2019-02-11T08:32:11.670Z,100376.34
2019-02-11T08:34:39.919Z,100384.59
2019-02-11T08:37:08.190Z,100380.61
2019-02-11T08:39:36.479Z,100388.50
2019-02-11T08:42:04.731Z,100393.70
2019-02-11T08:44:33.694Z,100397.40
2019-02-11T08:47:02.019Z,100405.79
2019-02-11T08:49:30.303Z,100406.27
2019-02-11T08:51:58.585Z,100414.16
2019-02-11T08:54:26.847Z,100427.72
2019-02-11T08:56:55.228Z,100424.20
2019-02-11T08:59:23.503Z,100412.94
2019-02-11T09:01:51.813Z,100422.23
2019-02-11T09:04:20.088Z,100431.70
2019-02-11T09:06:48.339Z,100437.77
2019-02-11T09:09:16.593Z,100442.83
2019-02-11T09:11:44.870Z,100445.84
2019-02-11T09:14:13.146Z,100450.69
2019-02-11T09:16:41.399Z,100447.38
2019-02-11T09:19:09.817Z,100438.77
2019-02-11T09:21:38.100Z,100451.84
2019-02-11T09:24:06.356Z,100452.44
2019-02-11T09:26:34.639Z,100463.06
2019-02-11T09:29:03.262Z,100462.48
2019-02-11T09:31:31.606Z,100472.20
2019-02-11T09:34:00.159Z,100476.20
2019-02-11T09:36:28.424Z,100483.80
2019-02-11T09:38:56.705Z,100484.08
2019-02-11T09:41:25.147Z,100491.59
2019-02-11T09:43:53.801Z,100490.84
2019-02-11T09:46:22.079Z,100499.75
2019-02-11T09:48:50.945Z,100508.09
2019-02-11T09:51:20.239Z,100521.28
2019-02-11T09:53:48.487Z,100535.16
2019-02-11T09:56:16.929Z,100537.12
2019-02-11T09:58:45.212Z,100538.35
2019-02-11T10:01:13.465Z,100544.31
2019-02-11T10:03:41.742Z,100544.31
2019-02-11T10:06:10.030Z,100552.46
2019-02-11T10:08:38.372Z,100560.61
2019-02-11T10:11:06.648Z,100568.76
2019-02-11T10:13:34.923Z,100572.27
2019-02-11T10:16:03.278Z,100574.81
2019-02-11T10:18:31.518Z,100577.98
2019-02-11T10:20:59.807Z,100582.71
2019-02-11T10:23:28.060Z,100585.94
2019-02-11T10:25:56.403Z,100590.45
2019-02-11T10:28:24.796Z,100603.27
2019-02-11T10:30:53.365Z,100612.09
2019-02-11T10:33:21.635Z,100627.92
2019-02-11T10:35:49.976Z,100620.82
2019-02-11T10:38:18.261Z,100625.20
2019-02-11T10:40:46.548Z,100624.27
2019-02-11T10:43:14.926Z,100632.89
2019-02-11T10:45:43.268Z,100634.05
2019-02-11T10:48:11.638Z,100640.05
2019-02-11T10:50:39.916Z,100649.08
2019-02-11T10:53:08.158Z,100653.53
2019-02-11T10:55:36.534Z,100659.34
2019-02-11T10:58:04.823Z,100665.88
2019-02-11T11:00:33.340Z,100667.44
2019-02-11T11:03:01.719Z,100678.84
2019-02-11T11:05:29.972Z,100677.94
2019-02-11T11:07:58.225Z,100680.42
2019-02-11T11:10:32.184Z,100688.91
2019-02-11T11:13:00.453Z,100691.11
2019-02-11T11:15:29.128Z,100689.83
2019-02-11T11:17:57.439Z,100700.02
2019-02-11T11:20:25.917Z,100705.29
2019-02-11T11:22:54.404Z,100708.42
2019-02-11T11:25:22.875Z,100720.03
2019-02-11T11:27:51.347Z,100721.58
2019-02-11T11:30:20.003Z,100721.11
2019-02-11T11:32:48.297Z,100729.27
2019-02-11T11:35:17.859Z,100734.88
2019-02-11T11:37:46.120Z,100738.80
2019-02-11T11:40:19.880Z,100738.80
2019-02-11T11:42:48.123Z,100737.48
2019-02-11T11:45:18.582Z,100734.75
2019-02-11T11:47:46.935Z,100727.11
2019-02-11T11:50:16.220Z,100721.34
2019-02-11T11:52:44.535Z,100725.91
2019-02-11T11:55:15.202Z,100727.37
2019-02-11T11:57:43.482Z,100729.16
2019-02-11T12:00:28.837Z,100741.86
2019-02-11T12:03:02.786Z,100749.25
2019-02-11T12:05:27.104Z,100754.11
2019-02-11T12:07:55.367Z,100755.47
2019-02-11T12:10:23.846Z,100763.66
2019-02-11T12:12:52.259Z,100777.60
2019-02-11T12:15:22.500Z,100766.77
2019-02-11T12:17:51.085Z,100778.62
2019-02-11T12:20:19.379Z,100782.28
2019-02-11T12:22:47.665Z,100773.80
2019-02-11T12:25:17.627Z,100790.48
2019-02-11T12:27:45.892Z,100787.78
2019-02-11T12:30:16.941Z,100795.27
2019-02-11T12:32:45.194Z,100804.63
2019-02-11T12:35:14.349Z,100812.73
2019-02-11T12:37:42.675Z,100814.66
2019-02-11T12:40:11.961Z,100814.47
2019-02-11T12:42:40.207Z,100806.31
2019-02-11T12:45:14.817Z,100815.77
2019-02-11T12:47:42.499Z,100817.28
2019-02-11T12:50:13.186Z,100833.75
2019-02-11T12:52:41.662Z,100834.88
2019-02-11T12:55:17.796Z,100845.21
2019-02-11T12:57:46.100Z,100833.55
2019-02-11T13:00:23.603Z,100858.57
2019-02-11T13:02:52.033Z,100861.59
2019-02-11T13:05:23.205Z,100862.41
2019-02-11T13:07:50.801Z,100865.41
2019-02-11T13:10:22.122Z,100867.10
2019-02-11T13:12:50.706Z,100884.30
2019-02-11T13:15:59.139Z,100892.98
2019-02-11T13:17:49.598Z,100894.87
2019-02-11T13:20:18.922Z,100892.22
2019-02-11T13:22:47.626Z,100890.73
2019-02-11T13:25:16.790Z,100905.41
2019-02-11T13:27:45.128Z,100902.27
2019-02-11T13:30:19.178Z,100902.63
2019-02-11T13:32:47.551Z,100914.72
2019-02-11T13:35:15.904Z,100926.53
2019-02-11T13:37:44.147Z,100958.77
2019-02-11T13:40:12.647Z,100963.94
2019-02-11T13:42:40.958Z,100954.81
2019-02-11T13:45:48.701Z,100961.58
2019-02-11T13:48:17.071Z,100968.02
2019-02-11T13:50:45.482Z,100968.05
2019-02-11T13:53:13.729Z,100980.44
2019-02-11T13:55:42.199Z,100978.31
2019-02-11T13:58:10.476Z,100985.76
2019-02-11T14:00:38.856Z,100982.13
2019-02-11T14:03:07.793Z,100991.09
2019-02-11T14:05:36.130Z,101000.20
2019-02-11T14:08:04.441Z,101001.34
2019-02-11T14:10:32.829Z,100999.39
2019-02-11T14:13:01.147Z,101010.05
2019-02-11T14:15:29.473Z,101022.36
2019-02-11T14:18:12.128Z,101025.44
2019-02-11T14:20:33.557Z,101026.88
2019-02-11T14:23:01.838Z,101028.88
2019-02-11T14:25:42.367Z,101041.73
2019-02-11T14:28:00.079Z,101039.83
2019-02-11T14:30:28.372Z,101045.55
2019-02-11T14:32:57.707Z,101052.03
2019-02-11T14:35:25.988Z,101057.02
2019-02-11T14:37:54.368Z,101061.14
2019-02-11T14:40:22.806Z,101070.80
2019-02-11T14:42:51.105Z,101082.23
2019-02-11T14:45:20.395Z,101087.97
2019-02-11T14:47:48.705Z,101089.12
2019-02-11T14:50:16.916Z,101093.23
2019-02-11T14:52:45.168Z,101091.03
2019-02-11T14:55:13.478Z,101094.80
2019-02-11T14:57:41.755Z,101092.08
2019-02-11T15:00:14.690Z,101100.41
2019-02-11T15:02:42.944Z,101104.33
2019-02-11T15:05:11.229Z,101118.60
2019-02-11T15:07:39.575Z,101118.50
2019-02-11T15:10:10.038Z,101123.62
2019-02-11T15:12:38.314Z,101124.31
2019-02-11T15:15:08.603Z,101130.99
2019-02-11T15:17:37.359Z,101130.70
2019-02-11T15:20:08.504Z,101129.95
2019-02-11T15:22:36.779Z,101129.93
2019-02-11T15:25:08.235Z,101133.47
2019-02-11T15:27:38.240Z,101140.37
2019-02-11T15:30:09.476Z,101149.67
2019-02-11T15:32:37.828Z,101158.02
2019-02-11T15:35:07.817Z,101165.94
2019-02-11T15:37:36.227Z,101181.73
2019-02-11T15:40:07.445Z,101184.48
2019-02-11T15:42:35.776Z,101190.81
2019-02-11T15:45:09.867Z,101196.95
2019-02-11T15:47:38.142Z,101202.99
2019-02-11T15:50:09.489Z,101205.19
2019-02-11T15:52:38.107Z,101215.73
2019-02-11T15:55:14.782Z,101213.72
2019-02-11T15:57:43.057Z,101242.97
2019-02-11T16:00:14.438Z,101244.44
2019-02-11T16:02:42.785Z,101252.02
2019-02-11T16:05:16.122Z,101268.66
2019-02-11T16:07:41.356Z,101272.88
2019-02-11T16:10:18.502Z,101280.50
2019-02-11T16:12:46.822Z,101294.57
2019-02-11T16:15:15.112Z,101293.78
2019-02-11T16:17:43.394Z,101310.97
2019-02-11T16:20:14.644Z,101315.97
2019-02-11T16:22:43.157Z,101323.30
2019-02-11T16:25:13.139Z,101331.09
2019-02-11T16:27:41.547Z,101327.38
2019-02-11T16:30:12.537Z,101339.06
2019-02-11T16:32:40.791Z,101344.55
2019-02-11T16:35:10.855Z,101350.86
2019-02-11T16:37:40.008Z,101363.00
2019-02-11T16:40:11.225Z,101368.07
2019-02-11T16:42:39.476Z,101377.88
2019-02-11T16:45:09.962Z,101392.89
2019-02-11T16:47:38.385Z,101405.63
2019-02-11T16:50:09.729Z,101425.42
2019-02-11T16:52:38.104Z,101458.04
2019-02-11T16:55:08.897Z,101459.83
2019-02-11T16:57:37.274Z,101468.00
2019-02-11T17:00:09.289Z,101473.70
2019-02-11T17:02:37.541Z,101463.87
2019-02-11T17:05:08.884Z,101460.59
2019-02-11T17:07:41.875Z,101471.63
2019-02-11T17:10:09.862Z,101477.72
2019-02-11T17:12:38.284Z,101478.73
2019-02-11T17:15:09.872Z,101475.31
2019-02-11T17:17:38.210Z,101485.53
2019-02-11T17:20:12.378Z,101489.59
2019-02-11T17:22:40.646Z,101493.42
2019-02-11T17:25:10.258Z,101500.66
2019-02-11T17:27:38.534Z,101502.52
2019-02-11T17:30:12.753Z,101503.05
2019-02-11T17:32:40.583Z,101511.45
2019-02-11T17:35:10.579Z,101524.19
2019-02-11T17:37:39.033Z,101531.39
2019-02-11T17:40:14.336Z,101541.73
2019-02-11T17:42:42.627Z,101543.62
2019-02-11T17:45:19.697Z,101543.52
2019-02-11T17:47:48.001Z,101549.61
2019-02-11T17:50:16.243Z,101544.02
2019-02-11T17:52:44.503Z,101547.76
2019-02-11T17:55:14.716Z,101545.41
2019-02-11T17:57:42.981Z,101549.72
2019-02-11T18:00:25.001Z,101555.28
2019-02-11T18:02:53.324Z,101564.09
2019-02-11T18:05:21.660Z,101568.73
2019-02-11T18:07:49.939Z,101576.44
2019-02-11T18:10:18.212Z,101580.14
2019-02-11T18:12:46.468Z,101582.06
2019-02-11T18:15:14.762Z,101588.96
2019-02-11T18:17:43.015Z,101592.75
2019-02-11T18:20:11.294Z,101596.06
2019-02-11T18:22:39.558Z,101598.53
2019-02-11T18:25:09.473Z,101606.16
2019-02-11T18:27:37.982Z,101606.25
2019-02-11T18:30:13.644Z,101616.04
2019-02-11T18:32:41.955Z,101608.81
2019-02-11T18:35:12.543Z,101619.14
2019-02-11T18:37:40.844Z,101626.02
2019-02-11T18:40:12.056Z,101631.50
2019-02-11T18:42:40.595Z,101626.40
2019-02-11T18:45:16.923Z,101630.17
2019-02-11T18:47:45.218Z,101626.47
2019-02-11T18:50:14.512Z,101633.87
2019-02-11T18:52:42.909Z,101639.16
2019-02-11T18:55:13.337Z,101641.31
2019-02-11T18:57:41.854Z,101647.91
2019-02-11T19:00:13.335Z,101659.74
2019-02-11T19:02:41.851Z,101673.69
2019-02-11T19:05:10.602Z,101673.55
2019-02-11T19:07:38.908Z,101686.10
2019-02-11T19:10:10.642Z,101690.72
2019-02-11T19:12:38.908Z,101688.17
2019-02-11T19:15:10.437Z,101682.42
2019-02-11T19:17:38.685Z,101672.67
2019-02-11T19:20:09.646Z,101675.69
2019-02-11T19:22:38.139Z,101671.74
2019-02-11T19:25:09.024Z,101669.61
2019-02-11T19:27:37.310Z,101674.07
2019-02-11T19:30:14.657Z,101677.69
2019-02-11T19:32:43.083Z,101667.75
2019-02-11T19:35:11.343Z,101677.20
2019-02-11T19:37:39.589Z,101684.84
2019-02-11T19:40:10.876Z,101697.31
2019-02-11T19:42:39.247Z,101712.45
2019-02-11T19:45:10.744Z,101717.80
2019-02-11T19:47:39.249Z,101707.19
2019-02-11T19:50:10.649Z,101712.40
2019-02-11T19:52:38.949Z,101716.72
2019-02-11T19:55:10.862Z,101715.34
2019-02-11T19:57:39.190Z,101705.71
2019-02-11T20:00:19.190Z,101710.94
2019-02-11T20:02:48.000Z,101708.74
2019-02-11T20:05:16.332Z,101712.70
2019-02-11T20:07:44.830Z,101702.14
2019-02-11T20:10:23.537Z,101716.73
2019-02-11T20:12:51.934Z,101716.73
2019-02-11T20:15:28.854Z,101732.70
2019-02-11T20:17:57.118Z,101731.38
2019-02-11T20:20:25.466Z,101737.02
2019-02-11T20:22:53.729Z,101742.63
2019-02-11T20:25:22.277Z,101742.05
2019-02-11T20:27:50.619Z,101743.75
2019-02-11T20:30:26.733Z,101749.52
2019-02-11T20:32:54.994Z,101753.92
2019-02-11T20:35:23.338Z,101770.72
2019-02-11T20:37:51.578Z,101779.20
2019-02-11T20:40:22.779Z,101789.01
2019-02-11T20:42:51.090Z,101783.43
2019-02-11T20:45:21.697Z,101781.84
2019-02-11T20:47:49.974Z,101796.98
2019-02-11T20:50:18.558Z,101798.03
2019-02-11T20:52:46.928Z,101804.76
2019-02-11T20:55:15.359Z,101807.50
2019-02-11T20:57:44.586Z,101820.70
2019-02-11T21:00:16.478Z,101820.58
2019-02-11T21:02:44.792Z,101818.65
2019-02-11T21:05:13.230Z,101825.08
2019-02-11T21:07:41.572Z,101820.98
2019-02-11T21:10:12.614Z,101826.53
2019-02-11T21:12:41.052Z,101816.17
2019-02-11T21:15:14.406Z,101822.15
2019-02-11T21:17:42.780Z,101819.70
2019-02-11T21:20:20.583Z,101821.64
2019-02-11T21:22:49.060Z,101821.89
2019-02-11T21:25:17.433Z,101833.62
2019-02-11T21:27:45.812Z,101829.91
2019-02-11T21:30:15.926Z,101838.02
2019-02-11T21:32:44.260Z,101840.50
2019-02-11T21:35:13.280Z,101845.16
2019-02-11T21:37:41.722Z,101846.83
2019-02-11T21:40:09.981Z,101853.69
2019-02-11T21:42:38.360Z,101849.20
2019-02-11T21:45:11.349Z,101853.48
2019-02-11T21:47:39.905Z,101859.12
2019-02-11T21:50:11.212Z,101875.74
2019-02-11T21:52:39.506Z,101866.86
2019-02-11T21:55:10.980Z,101877.79
2019-02-11T21:57:39.230Z,101872.81
2019-02-11T22:00:10.935Z,101875.38
2019-02-11T22:02:39.250Z,101868.25
2019-02-11T22:05:07.978Z,101870.76
2019-02-11T22:07:36.245Z,101867.59
2019-02-11T22:10:09.900Z,101870.09
2019-02-11T22:12:38.146Z,101876.19
2019-02-11T22:15:07.776Z,101877.87
2019-02-11T22:17:36.188Z,101883.52
2019-02-11T22:20:10.012Z,101894.47
2019-02-11T22:22:38.256Z,101889.57
2019-02-11T22:25:08.615Z,101896.55
2019-02-11T22:27:36.888Z,101901.77
2019-02-11T22:30:08.440Z,101898.54
2019-02-11T22:32:36.680Z,101897.05
2019-02-11T22:35:07.685Z,101890.78
2019-02-11T22:37:36.064Z,101890.27
2019-02-11T22:40:05.980Z,101886.22
2019-02-11T22:42:34.224Z,101893.20
2019-02-11T22:45:02.503Z,101886.08
2019-02-11T22:47:30.944Z,101894.84
2019-02-11T22:49:59.216Z,101897.88
2019-02-11T22:52:27.493Z,101911.44
2019-02-11T22:54:55.738Z,101912.22
2019-02-11T22:57:24.112Z,101917.02
2019-02-11T22:59:52.492Z,101909.44
2019-02-11T23:02:20.844Z,101913.83
2019-02-11T23:04:49.121Z,101919.21
2019-02-11T23:07:17.377Z,101925.02
2019-02-11T23:09:45.723Z,101929.09
2019-02-11T23:12:13.977Z,101939.83
2019-02-11T23:14:42.228Z,101940.95
2019-02-11T23:17:11.138Z,101932.77
2019-02-11T23:19:39.421Z,101921.47
2019-02-11T23:22:07.730Z,101909.80
2019-02-11T23:24:35.976Z,101914.87
2019-02-11T23:27:04.250Z,101909.86
2019-02-11T23:29:32.503Z,101915.89
2019-02-11T23:32:00.800Z,101916.61
2019-02-11T23:34:29.075Z,101921.78
2019-02-11T23:36:57.321Z,101928.55
2019-02-11T23:39:25.601Z,101937.56
2019-02-11T23:41:54.000Z,101940.40
2019-02-11T23:44:22.255Z,101948.00
2019-02-11T23:46:50.496Z,101953.84
2019-02-11T23:49:18.771Z,101955.31
2019-02-11T23:51:47.049Z,101969.59
2019-02-11T23:54:15.322Z,101972.41
2019-02-11T23:56:43.589Z,101969.45
2019-02-11T23:59:12.147Z,101973.97
